sensor_id;sensor_type;location;lat;lon;timestamp;P1;durP1;ratioP1;P2;durP2;ratioP2
73428;SDS011;61643;49.564;17.412;2023-11-19T00:00:53;21.20;;;8.82;;
73428;SDS011;61643;49.564;17.412;2023-11-19T00:03:19;25.63;;;9.18;;
73428;SDS011;61643;49.564;17.412;2023-11-19T00:05:45;25.25;;;10.00;;
73428;SDS011;61643;49.564;17.412;2023-11-19T00:08:11;22.95;;;10.20;;
73428;SDS011;61643;49.564;17.412;2023-11-19T00:10:37;23.38;;;10.40;;
73428;SDS011;61643;49.564;17.412;2023-11-19T00:13:05;24.52;;;10.85;;
73428;SDS011;61643;49.564;17.412;2023-11-19T00:15:32;25.73;;;10.18;;
73428;SDS011;61643;49.564;17.412;2023-11-19T00:17:58;22.85;;;10.25;;
73428;SDS011;61643;49.564;17.412;2023-11-19T00:20:24;21.48;;;9.27;;
73428;SDS011;61643;49.564;17.412;2023-11-19T00:22:50;23.42;;;9.93;;
73428;SDS011;61643;49.564;17.412;2023-11-19T00:25:19;24.70;;;10.80;;
73428;SDS011;61643;49.564;17.412;2023-11-19T00:27:47;25.25;;;10.95;;
73428;SDS011;61643;49.564;17.412;2023-11-19T00:30:13;24.30;;;10.65;;
73428;SDS011;61643;49.564;17.412;2023-11-19T00:32:40;25.63;;;10.90;;
73428;SDS011;61643;49.564;17.412;2023-11-19T00:35:06;22.83;;;9.73;;
73428;SDS011;61643;49.564;17.412;2023-11-19T00:37:33;25.55;;;10.30;;
73428;SDS011;61643;49.564;17.412;2023-11-19T00:39:59;23.80;;;9.63;;
73428;SDS011;61643;49.564;17.412;2023-11-19T00:42:25;24.73;;;10.07;;
73428;SDS011;61643;49.564;17.412;2023-11-19T00:44:52;23.83;;;10.23;;
73428;SDS011;61643;49.564;17.412;2023-11-19T00:47:18;20.80;;;9.02;;
73428;SDS011;61643;49.564;17.412;2023-11-19T00:49:48;27.98;;;10.52;;
73428;SDS011;61643;49.564;17.412;2023-11-19T00:52:15;23.08;;;10.68;;
73428;SDS011;61643;49.564;17.412;2023-11-19T00:54:42;24.80;;;10.88;;
73428;SDS011;61643;49.564;17.412;2023-11-19T00:57:08;23.40;;;10.13;;
73428;SDS011;61643;49.564;17.412;2023-11-19T00:59:34;25.83;;;10.05;;
73428;SDS011;61643;49.564;17.412;2023-11-19T01:02:01;23.67;;;9.90;;
73428;SDS011;61643;49.564;17.412;2023-11-19T01:04:29;25.92;;;10.68;;
73428;SDS011;61643;49.564;17.412;2023-11-19T01:06:55;25.02;;;9.48;;
73428;SDS011;61643;49.564;17.412;2023-11-19T01:09:21;29.00;;;10.82;;
73428;SDS011;61643;49.564;17.412;2023-11-19T01:11:47;22.70;;;9.82;;
73428;SDS011;61643;49.564;17.412;2023-11-19T01:14:13;27.42;;;10.75;;
73428;SDS011;61643;49.564;17.412;2023-11-19T01:16:39;25.55;;;10.48;;
73428;SDS011;61643;49.564;17.412;2023-11-19T01:19:06;25.73;;;10.65;;
73428;SDS011;61643;49.564;17.412;2023-11-19T01:21:33;26.35;;;11.15;;
73428;SDS011;61643;49.564;17.412;2023-11-19T01:23:59;28.10;;;11.75;;
73428;SDS011;61643;49.564;17.412;2023-11-19T01:26:25;23.17;;;10.68;;
73428;SDS011;61643;49.564;17.412;2023-11-19T01:28:51;26.40;;;11.45;;
73428;SDS011;61643;49.564;17.412;2023-11-19T01:31:18;23.48;;;11.07;;
73428;SDS011;61643;49.564;17.412;2023-11-19T01:33:45;26.42;;;11.68;;
73428;SDS011;61643;49.564;17.412;2023-11-19T01:36:15;25.90;;;11.27;;
73428;SDS011;61643;49.564;17.412;2023-11-19T01:38:41;25.63;;;10.25;;
73428;SDS011;61643;49.564;17.412;2023-11-19T01:41:07;26.65;;;10.65;;
73428;SDS011;61643;49.564;17.412;2023-11-19T01:43:33;30.48;;;11.32;;
73428;SDS011;61643;49.564;17.412;2023-11-19T01:46:01;23.90;;;10.55;;
73428;SDS011;61643;49.564;17.412;2023-11-19T01:48:29;26.85;;;11.43;;
73428;SDS011;61643;49.564;17.412;2023-11-19T01:50:56;25.15;;;11.20;;
73428;SDS011;61643;49.564;17.412;2023-11-19T01:53:22;25.38;;;10.40;;
73428;SDS011;61643;49.564;17.412;2023-11-19T01:55:50;24.75;;;9.80;;
73428;SDS011;61643;49.564;17.412;2023-11-19T01:58:18;24.70;;;10.23;;
73428;SDS011;61643;49.564;17.412;2023-11-19T02:00:45;26.33;;;11.20;;
73428;SDS011;61643;49.564;17.412;2023-11-19T02:03:12;31.33;;;11.15;;
73428;SDS011;61643;49.564;17.412;2023-11-19T02:05:38;25.17;;;10.02;;
73428;SDS011;61643;49.564;17.412;2023-11-19T02:08:05;25.02;;;10.55;;
73428;SDS011;61643;49.564;17.412;2023-11-19T02:10:31;23.55;;;9.70;;
73428;SDS011;61643;49.564;17.412;2023-11-19T02:12:58;24.73;;;11.07;;
73428;SDS011;61643;49.564;17.412;2023-11-19T02:15:24;24.90;;;10.55;;
73428;SDS011;61643;49.564;17.412;2023-11-19T02:17:50;22.35;;;10.40;;
73428;SDS011;61643;49.564;17.412;2023-11-19T02:20:17;23.42;;;9.13;;
73428;SDS011;61643;49.564;17.412;2023-11-19T02:22:46;24.10;;;9.13;;
73428;SDS011;61643;49.564;17.412;2023-11-19T02:25:34;24.38;;;10.90;;
73428;SDS011;61643;49.564;17.412;2023-11-19T02:28:01;24.70;;;9.98;;
73428;SDS011;61643;49.564;17.412;2023-11-19T02:30:28;25.00;;;9.93;;
73428;SDS011;61643;49.564;17.412;2023-11-19T02:32:55;22.13;;;9.20;;
73428;SDS011;61643;49.564;17.412;2023-11-19T02:35:23;21.38;;;9.27;;
73428;SDS011;61643;49.564;17.412;2023-11-19T02:37:52;20.10;;;8.70;;
73428;SDS011;61643;49.564;17.412;2023-11-19T02:40:20;21.25;;;9.23;;
73428;SDS011;61643;49.564;17.412;2023-11-19T02:42:49;21.83;;;8.82;;
73428;SDS011;61643;49.564;17.412;2023-11-19T02:45:16;24.48;;;10.07;;
73428;SDS011;61643;49.564;17.412;2023-11-19T02:47:43;22.85;;;9.60;;
73428;SDS011;61643;49.564;17.412;2023-11-19T02:50:10;20.40;;;8.60;;
73428;SDS011;61643;49.564;17.412;2023-11-19T02:52:43;25.35;;;9.15;;
73428;SDS011;61643;49.564;17.412;2023-11-19T02:55:11;23.15;;;9.63;;
73428;SDS011;61643;49.564;17.412;2023-11-19T02:57:38;23.27;;;9.57;;
73428;SDS011;61643;49.564;17.412;2023-11-19T03:00:14;24.50;;;10.45;;
73428;SDS011;61643;49.564;17.412;2023-11-19T03:02:41;21.20;;;9.43;;
73428;SDS011;61643;49.564;17.412;2023-11-19T03:05:14;20.98;;;9.63;;
73428;SDS011;61643;49.564;17.412;2023-11-19T03:07:42;24.30;;;10.18;;
73428;SDS011;61643;49.564;17.412;2023-11-19T03:10:12;21.23;;;9.77;;
73428;SDS011;61643;49.564;17.412;2023-11-19T03:12:41;23.52;;;9.77;;
73428;SDS011;61643;49.564;17.412;2023-11-19T03:15:09;22.70;;;10.07;;
73428;SDS011;61643;49.564;17.412;2023-11-19T03:17:38;25.77;;;10.57;;
73428;SDS011;61643;49.564;17.412;2023-11-19T03:20:06;24.38;;;10.15;;
73428;SDS011;61643;49.564;17.412;2023-11-19T03:22:38;21.90;;;9.50;;
73428;SDS011;61643;49.564;17.412;2023-11-19T03:25:05;22.70;;;9.98;;
73428;SDS011;61643;49.564;17.412;2023-11-19T03:27:39;26.20;;;10.25;;
73428;SDS011;61643;49.564;17.412;2023-11-19T03:30:08;24.05;;;9.15;;
73428;SDS011;61643;49.564;17.412;2023-11-19T03:32:37;26.60;;;9.93;;
73428;SDS011;61643;49.564;17.412;2023-11-19T03:35:04;20.63;;;8.88;;
73428;SDS011;61643;49.564;17.412;2023-11-19T03:37:34;21.85;;;9.55;;
73428;SDS011;61643;49.564;17.412;2023-11-19T03:40:02;22.27;;;9.45;;
73428;SDS011;61643;49.564;17.412;2023-11-19T03:42:28;19.52;;;9.27;;
73428;SDS011;61643;49.564;17.412;2023-11-19T03:44:58;22.23;;;9.35;;
73428;SDS011;61643;49.564;17.412;2023-11-19T03:47:24;24.45;;;9.68;;
73428;SDS011;61643;49.564;17.412;2023-11-19T03:49:50;23.98;;;10.05;;
73428;SDS011;61643;49.564;17.412;2023-11-19T03:52:17;21.88;;;9.48;;
73428;SDS011;61643;49.564;17.412;2023-11-19T03:54:44;21.98;;;9.25;;
73428;SDS011;61643;49.564;17.412;2023-11-19T03:57:14;23.17;;;9.77;;
73428;SDS011;61643;49.564;17.412;2023-11-19T03:59:41;24.10;;;9.13;;
73428;SDS011;61643;49.564;17.412;2023-11-19T04:02:07;24.67;;;9.90;;
73428;SDS011;61643;49.564;17.412;2023-11-19T04:04:33;20.38;;;9.18;;
73428;SDS011;61643;49.564;17.412;2023-11-19T04:07:00;20.63;;;9.32;;
73428;SDS011;61643;49.564;17.412;2023-11-19T04:09:26;25.02;;;10.18;;
73428;SDS011;61643;49.564;17.412;2023-11-19T04:11:52;23.80;;;9.25;;
73428;SDS011;61643;49.564;17.412;2023-11-19T04:14:18;22.58;;;9.75;;
73428;SDS011;61643;49.564;17.412;2023-11-19T04:16:44;21.15;;;9.40;;
73428;SDS011;61643;49.564;17.412;2023-11-19T04:19:11;23.52;;;9.82;;
73428;SDS011;61643;49.564;17.412;2023-11-19T04:21:39;21.23;;;9.43;;
73428;SDS011;61643;49.564;17.412;2023-11-19T04:24:07;20.95;;;9.27;;
73428;SDS011;61643;49.564;17.412;2023-11-19T04:26:41;22.55;;;8.80;;
73428;SDS011;61643;49.564;17.412;2023-11-19T04:29:14;22.00;;;8.90;;
73428;SDS011;61643;49.564;17.412;2023-11-19T04:31:42;24.33;;;9.50;;
73428;SDS011;61643;49.564;17.412;2023-11-19T04:34:12;22.08;;;9.20;;
73428;SDS011;61643;49.564;17.412;2023-11-19T04:36:38;22.20;;;9.68;;
73428;SDS011;61643;49.564;17.412;2023-11-19T04:39:04;23.70;;;9.25;;
73428;SDS011;61643;49.564;17.412;2023-11-19T04:41:47;22.10;;;9.57;;
73428;SDS011;61643;49.564;17.412;2023-11-19T04:44:15;20.52;;;9.27;;
73428;SDS011;61643;49.564;17.412;2023-11-19T04:46:42;18.15;;;8.43;;
73428;SDS011;61643;49.564;17.412;2023-11-19T04:49:14;21.48;;;8.35;;
73428;SDS011;61643;49.564;17.412;2023-11-19T04:51:42;20.00;;;9.07;;
73428;SDS011;61643;49.564;17.412;2023-11-19T04:54:09;20.40;;;8.32;;
73428;SDS011;61643;49.564;17.412;2023-11-19T04:56:36;19.38;;;8.35;;
73428;SDS011;61643;49.564;17.412;2023-11-19T04:59:05;19.20;;;8.25;;
73428;SDS011;61643;49.564;17.412;2023-11-19T05:01:32;19.13;;;8.25;;
73428;SDS011;61643;49.564;17.412;2023-11-19T05:03:59;19.52;;;8.45;;
73428;SDS011;61643;49.564;17.412;2023-11-19T05:06:26;17.92;;;7.80;;
73428;SDS011;61643;49.564;17.412;2023-11-19T05:08:56;16.42;;;7.57;;
73428;SDS011;61643;49.564;17.412;2023-11-19T05:11:24;18.73;;;8.25;;
73428;SDS011;61643;49.564;17.412;2023-11-19T05:13:50;20.75;;;7.43;;
73428;SDS011;61643;49.564;17.412;2023-11-19T05:16:16;14.27;;;7.20;;
73428;SDS011;61643;49.564;17.412;2023-11-19T05:18:43;16.98;;;7.60;;
73428;SDS011;61643;49.564;17.412;2023-11-19T05:21:09;17.98;;;7.07;;
73428;SDS011;61643;49.564;17.412;2023-11-19T05:23:35;15.07;;;7.00;;
73428;SDS011;61643;49.564;17.412;2023-11-19T05:26:01;15.10;;;6.70;;
73428;SDS011;61643;49.564;17.412;2023-11-19T05:28:27;14.27;;;6.45;;
73428;SDS011;61643;49.564;17.412;2023-11-19T05:30:54;16.73;;;7.25;;
73428;SDS011;61643;49.564;17.412;2023-11-19T05:33:20;15.52;;;7.25;;
73428;SDS011;61643;49.564;17.412;2023-11-19T05:35:47;13.20;;;6.43;;
73428;SDS011;61643;49.564;17.412;2023-11-19T05:38:13;13.80;;;6.80;;
73428;SDS011;61643;49.564;17.412;2023-11-19T05:40:41;14.35;;;6.65;;
73428;SDS011;61643;49.564;17.412;2023-11-19T05:43:07;14.35;;;6.53;;
73428;SDS011;61643;49.564;17.412;2023-11-19T05:45:33;15.07;;;6.32;;
73428;SDS011;61643;49.564;17.412;2023-11-19T05:47:59;14.13;;;6.85;;
73428;SDS011;61643;49.564;17.412;2023-11-19T05:50:25;13.18;;;6.28;;
73428;SDS011;61643;49.564;17.412;2023-11-19T05:52:51;15.57;;;6.95;;
73428;SDS011;61643;49.564;17.412;2023-11-19T05:55:18;12.43;;;6.57;;
73428;SDS011;61643;49.564;17.412;2023-11-19T05:57:45;15.02;;;6.57;;
73428;SDS011;61643;49.564;17.412;2023-11-19T06:00:11;12.75;;;6.00;;
73428;SDS011;61643;49.564;17.412;2023-11-19T06:02:38;15.25;;;6.55;;
73428;SDS011;61643;49.564;17.412;2023-11-19T06:05:05;13.07;;;6.60;;
73428;SDS011;61643;49.564;17.412;2023-11-19T06:07:32;14.52;;;6.07;;
73428;SDS011;61643;49.564;17.412;2023-11-19T06:09:59;12.75;;;5.78;;
73428;SDS011;61643;49.564;17.412;2023-11-19T06:12:25;12.98;;;6.07;;
73428;SDS011;61643;49.564;17.412;2023-11-19T06:14:55;13.50;;;5.80;;
73428;SDS011;61643;49.564;17.412;2023-11-19T06:17:22;12.30;;;5.80;;
73428;SDS011;61643;49.564;17.412;2023-11-19T06:19:48;11.35;;;5.47;;
73428;SDS011;61643;49.564;17.412;2023-11-19T06:22:14;12.13;;;5.90;;
73428;SDS011;61643;49.564;17.412;2023-11-19T06:24:40;14.95;;;6.20;;
73428;SDS011;61643;49.564;17.412;2023-11-19T06:27:06;13.55;;;6.03;;
73428;SDS011;61643;49.564;17.412;2023-11-19T06:29:31;13.55;;;6.20;;
73428;SDS011;61643;49.564;17.412;2023-11-19T06:31:57;11.88;;;5.72;;
73428;SDS011;61643;49.564;17.412;2023-11-19T06:34:23;12.77;;;5.53;;
73428;SDS011;61643;49.564;17.412;2023-11-19T06:36:49;14.93;;;6.70;;
73428;SDS011;61643;49.564;17.412;2023-11-19T06:39:15;14.55;;;5.57;;
73428;SDS011;61643;49.564;17.412;2023-11-19T06:41:46;13.35;;;5.90;;
73428;SDS011;61643;49.564;17.412;2023-11-19T06:44:13;12.65;;;5.25;;
73428;SDS011;61643;49.564;17.412;2023-11-19T06:46:39;15.35;;;6.95;;
73428;SDS011;61643;49.564;17.412;2023-11-19T06:49:05;14.07;;;6.32;;
73428;SDS011;61643;49.564;17.412;2023-11-19T06:51:33;15.20;;;6.68;;
73428;SDS011;61643;49.564;17.412;2023-11-19T06:54:00;14.18;;;6.18;;
73428;SDS011;61643;49.564;17.412;2023-11-19T06:56:26;15.27;;;6.68;;
73428;SDS011;61643;49.564;17.412;2023-11-19T06:58:52;15.27;;;6.97;;
73428;SDS011;61643;49.564;17.412;2023-11-19T07:01:19;15.77;;;6.53;;
73428;SDS011;61643;49.564;17.412;2023-11-19T07:03:45;14.88;;;6.53;;
73428;SDS011;61643;49.564;17.412;2023-11-19T07:06:12;15.73;;;6.88;;
73428;SDS011;61643;49.564;17.412;2023-11-19T07:08:38;13.10;;;6.53;;
73428;SDS011;61643;49.564;17.412;2023-11-19T07:11:06;16.90;;;5.57;;
73428;SDS011;61643;49.564;17.412;2023-11-19T07:13:35;17.48;;;6.85;;
73428;SDS011;61643;49.564;17.412;2023-11-19T07:16:02;17.80;;;7.22;;
73428;SDS011;61643;49.564;17.412;2023-11-19T07:18:29;17.23;;;7.95;;
73428;SDS011;61643;49.564;17.412;2023-11-19T07:20:55;16.83;;;7.30;;
73428;SDS011;61643;49.564;17.412;2023-11-19T07:23:21;14.85;;;6.88;;
73428;SDS011;61643;49.564;17.412;2023-11-19T07:25:47;17.05;;;7.00;;
73428;SDS011;61643;49.564;17.412;2023-11-19T07:28:13;14.30;;;6.90;;
73428;SDS011;61643;49.564;17.412;2023-11-19T07:30:40;14.02;;;6.22;;
73428;SDS011;61643;49.564;17.412;2023-11-19T07:33:06;18.05;;;7.20;;
73428;SDS011;61643;49.564;17.412;2023-11-19T07:35:32;17.05;;;6.40;;
73428;SDS011;61643;49.564;17.412;2023-11-19T07:37:58;12.57;;;5.93;;
73428;SDS011;61643;49.564;17.412;2023-11-19T07:40:24;10.07;;;6.25;;
73428;SDS011;61643;49.564;17.412;2023-11-19T07:42:50;12.57;;;6.15;;
73428;SDS011;61643;49.564;17.412;2023-11-19T07:45:17;13.02;;;6.28;;
73428;SDS011;61643;49.564;17.412;2023-11-19T07:47:43;15.02;;;6.10;;
73428;SDS011;61643;49.564;17.412;2023-11-19T07:50:10;11.35;;;5.82;;
73428;SDS011;61643;49.564;17.412;2023-11-19T07:52:39;12.93;;;5.30;;
73428;SDS011;61643;49.564;17.412;2023-11-19T07:55:06;15.77;;;6.53;;
73428;SDS011;61643;49.564;17.412;2023-11-19T07:57:32;13.80;;;5.93;;
73428;SDS011;61643;49.564;17.412;2023-11-19T07:59:58;11.48;;;5.22;;
73428;SDS011;61643;49.564;17.412;2023-11-19T08:02:24;12.48;;;6.38;;
73428;SDS011;61643;49.564;17.412;2023-11-19T08:04:50;12.45;;;5.95;;
73428;SDS011;61643;49.564;17.412;2023-11-19T08:07:18;13.20;;;6.10;;
73428;SDS011;61643;49.564;17.412;2023-11-19T08:09:45;13.63;;;6.00;;
73428;SDS011;61643;49.564;17.412;2023-11-19T08:12:10;19.52;;;7.28;;
73428;SDS011;61643;49.564;17.412;2023-11-19T08:14:36;15.07;;;6.95;;
73428;SDS011;61643;49.564;17.412;2023-11-19T08:17:03;13.10;;;6.75;;
73428;SDS011;61643;49.564;17.412;2023-11-19T08:19:29;17.45;;;7.15;;
73428;SDS011;61643;49.564;17.412;2023-11-19T08:21:55;13.95;;;6.38;;
73428;SDS011;61643;49.564;17.412;2023-11-19T08:24:21;17.45;;;6.65;;
73428;SDS011;61643;49.564;17.412;2023-11-19T08:26:47;12.95;;;6.57;;
73428;SDS011;61643;49.564;17.412;2023-11-19T08:29:13;16.67;;;7.78;;
73428;SDS011;61643;49.564;17.412;2023-11-19T08:31:39;15.45;;;7.03;;
73428;SDS011;61643;49.564;17.412;2023-11-19T08:34:06;16.60;;;7.07;;
73428;SDS011;61643;49.564;17.412;2023-11-19T08:36:35;15.70;;;6.75;;
73428;SDS011;61643;49.564;17.412;2023-11-19T08:39:01;14.98;;;6.25;;
73428;SDS011;61643;49.564;17.412;2023-11-19T08:41:27;16.38;;;5.70;;
73428;SDS011;61643;49.564;17.412;2023-11-19T08:43:53;13.93;;;6.78;;
73428;SDS011;61643;49.564;17.412;2023-11-19T08:46:19;14.27;;;6.60;;
73428;SDS011;61643;49.564;17.412;2023-11-19T08:48:45;13.18;;;6.43;;
73428;SDS011;61643;49.564;17.412;2023-11-19T08:51:12;14.48;;;6.47;;
73428;SDS011;61643;49.564;17.412;2023-11-19T08:53:38;15.57;;;6.53;;
73428;SDS011;61643;49.564;17.412;2023-11-19T08:56:04;12.10;;;6.03;;
73428;SDS011;61643;49.564;17.412;2023-11-19T08:58:30;11.80;;;5.22;;
73428;SDS011;61643;49.564;17.412;2023-11-19T09:00:57;11.05;;;5.75;;
73428;SDS011;61643;49.564;17.412;2023-11-19T09:03:23;9.57;;;5.38;;
73428;SDS011;61643;49.564;17.412;2023-11-19T09:05:51;11.15;;;5.13;;
73428;SDS011;61643;49.564;17.412;2023-11-19T09:08:17;10.77;;;5.18;;
73428;SDS011;61643;49.564;17.412;2023-11-19T09:10:43;10.65;;;5.30;;
73428;SDS011;61643;49.564;17.412;2023-11-19T09:13:09;9.50;;;4.95;;
73428;SDS011;61643;49.564;17.412;2023-11-19T09:15:35;9.43;;;4.10;;
73428;SDS011;61643;49.564;17.412;2023-11-19T09:18:01;9.60;;;4.53;;
73428;SDS011;61643;49.564;17.412;2023-11-19T09:20:27;8.20;;;4.50;;
73428;SDS011;61643;49.564;17.412;2023-11-19T09:22:53;8.77;;;4.50;;
73428;SDS011;61643;49.564;17.412;2023-11-19T09:25:19;8.73;;;4.15;;
73428;SDS011;61643;49.564;17.412;2023-11-19T09:27:45;11.25;;;5.13;;
73428;SDS011;61643;49.564;17.412;2023-11-19T09:30:11;10.25;;;4.90;;
73428;SDS011;61643;49.564;17.412;2023-11-19T09:32:38;10.38;;;5.00;;
73428;SDS011;61643;49.564;17.412;2023-11-19T09:35:05;9.15;;;4.63;;
73428;SDS011;61643;49.564;17.412;2023-11-19T09:37:32;9.65;;;4.75;;
73428;SDS011;61643;49.564;17.412;2023-11-19T09:39:58;9.13;;;4.45;;
73428;SDS011;61643;49.564;17.412;2023-11-19T09:42:24;11.27;;;5.45;;
73428;SDS011;61643;49.564;17.412;2023-11-19T09:44:50;13.77;;;6.30;;
73428;SDS011;61643;49.564;17.412;2023-11-19T09:47:17;10.98;;;5.70;;
73428;SDS011;61643;49.564;17.412;2023-11-19T09:49:45;15.40;;;7.03;;
73428;SDS011;61643;49.564;17.412;2023-11-19T09:52:11;12.55;;;6.03;;
73428;SDS011;61643;49.564;17.412;2023-11-19T09:54:37;14.40;;;7.40;;
73428;SDS011;61643;49.564;17.412;2023-11-19T09:57:03;11.73;;;5.90;;
73428;SDS011;61643;49.564;17.412;2023-11-19T09:59:33;13.02;;;6.40;;
73428;SDS011;61643;49.564;17.412;2023-11-19T10:01:59;9.52;;;4.90;;
73428;SDS011;61643;49.564;17.412;2023-11-19T10:04:25;13.55;;;6.57;;
73428;SDS011;61643;49.564;17.412;2023-11-19T10:06:55;13.80;;;6.53;;
73428;SDS011;61643;49.564;17.412;2023-11-19T10:09:21;9.63;;;5.38;;
73428;SDS011;61643;49.564;17.412;2023-11-19T10:11:48;11.07;;;5.72;;
73428;SDS011;61643;49.564;17.412;2023-11-19T10:14:15;11.45;;;6.07;;
73428;SDS011;61643;49.564;17.412;2023-11-19T10:16:44;12.45;;;5.95;;
73428;SDS011;61643;49.564;17.412;2023-11-19T10:19:12;13.35;;;6.20;;
73428;SDS011;61643;49.564;17.412;2023-11-19T10:21:45;12.93;;;6.00;;
73428;SDS011;61643;49.564;17.412;2023-11-19T10:24:11;12.13;;;6.05;;
73428;SDS011;61643;49.564;17.412;2023-11-19T10:26:37;11.13;;;5.35;;
73428;SDS011;61643;49.564;17.412;2023-11-19T10:29:04;10.95;;;5.88;;
73428;SDS011;61643;49.564;17.412;2023-11-19T10:31:30;11.57;;;5.57;;
73428;SDS011;61643;49.564;17.412;2023-11-19T10:33:56;12.65;;;5.68;;
73428;SDS011;61643;49.564;17.412;2023-11-19T10:36:22;13.88;;;6.70;;
73428;SDS011;61643;49.564;17.412;2023-11-19T10:38:53;10.55;;;5.80;;
73428;SDS011;61643;49.564;17.412;2023-11-19T10:41:29;10.75;;;5.65;;
73428;SDS011;61643;49.564;17.412;2023-11-19T10:43:56;10.85;;;5.35;;
73428;SDS011;61643;49.564;17.412;2023-11-19T10:46:23;12.27;;;5.90;;
73428;SDS011;61643;49.564;17.412;2023-11-19T10:49:02;12.68;;;5.82;;
73428;SDS011;61643;49.564;17.412;2023-11-19T10:51:28;13.75;;;6.55;;
73428;SDS011;61643;49.564;17.412;2023-11-19T10:53:55;15.48;;;7.43;;
73428;SDS011;61643;49.564;17.412;2023-11-19T10:56:26;14.80;;;7.03;;
73428;SDS011;61643;49.564;17.412;2023-11-19T10:58:56;13.95;;;6.45;;
73428;SDS011;61643;49.564;17.412;2023-11-19T11:01:26;13.93;;;6.45;;
73428;SDS011;61643;49.564;17.412;2023-11-19T11:03:56;12.55;;;6.28;;
73428;SDS011;61643;49.564;17.412;2023-11-19T11:06:26;13.50;;;6.65;;
73428;SDS011;61643;49.564;17.412;2023-11-19T11:08:53;11.82;;;5.80;;
73428;SDS011;61643;49.564;17.412;2023-11-19T11:11:20;13.32;;;6.25;;
73428;SDS011;61643;49.564;17.412;2023-11-19T11:13:47;14.35;;;6.93;;
73428;SDS011;61643;49.564;17.412;2023-11-19T11:16:14;14.27;;;6.50;;
73428;SDS011;61643;49.564;17.412;2023-11-19T11:18:45;14.10;;;6.50;;
73428;SDS011;61643;49.564;17.412;2023-11-19T11:21:15;17.50;;;7.53;;
73428;SDS011;61643;49.564;17.412;2023-11-19T11:29:17;13.23;;;6.47;;
73428;SDS011;61643;49.564;17.412;2023-11-19T11:37:46;12.90;;;6.75;;
73428;SDS011;61643;49.564;17.412;2023-11-19T11:40:15;20.55;;;10.38;;
73428;SDS011;61643;49.564;17.412;2023-11-19T11:42:44;13.65;;;6.63;;
73428;SDS011;61643;49.564;17.412;2023-11-19T11:45:13;13.63;;;6.60;;
73428;SDS011;61643;49.564;17.412;2023-11-19T11:50:10;19.42;;;8.77;;
73428;SDS011;61643;49.564;17.412;2023-11-19T11:55:28;14.82;;;8.10;;
73428;SDS011;61643;49.564;17.412;2023-11-19T11:58:02;14.10;;;6.50;;
73428;SDS011;61643;49.564;17.412;2023-11-19T12:02:56;18.15;;;9.25;;
73428;SDS011;61643;49.564;17.412;2023-11-19T12:05:26;16.40;;;7.93;;
73428;SDS011;61643;49.564;17.412;2023-11-19T12:07:57;16.77;;;8.90;;
73428;SDS011;61643;49.564;17.412;2023-11-19T12:10:31;13.65;;;6.50;;
73428;SDS011;61643;49.564;17.412;2023-11-19T12:13:01;28.75;;;14.18;;
73428;SDS011;61643;49.564;17.412;2023-11-19T12:15:30;13.20;;;7.18;;
73428;SDS011;61643;49.564;17.412;2023-11-19T12:17:56;15.63;;;6.60;;
73428;SDS011;61643;49.564;17.412;2023-11-19T12:20:23;20.45;;;10.27;;
73428;SDS011;61643;49.564;17.412;2023-11-19T12:22:50;13.27;;;6.70;;
73428;SDS011;61643;49.564;17.412;2023-11-19T12:25:17;14.25;;;7.03;;
73428;SDS011;61643;49.564;17.412;2023-11-19T12:27:46;30.98;;;11.63;;
73428;SDS011;61643;49.564;17.412;2023-11-19T12:30:17;16.25;;;7.80;;
73428;SDS011;61643;49.564;17.412;2023-11-19T12:32:53;17.52;;;9.10;;
73428;SDS011;61643;49.564;17.412;2023-11-19T12:35:19;15.07;;;8.10;;
73428;SDS011;61643;49.564;17.412;2023-11-19T12:37:46;14.68;;;7.07;;
73428;SDS011;61643;49.564;17.412;2023-11-19T12:40:17;14.52;;;6.72;;
73428;SDS011;61643;49.564;17.412;2023-11-19T12:42:45;17.05;;;8.50;;
73428;SDS011;61643;49.564;17.412;2023-11-19T12:45:12;14.82;;;7.30;;
73428;SDS011;61643;49.564;17.412;2023-11-19T12:47:39;12.27;;;6.50;;
73428;SDS011;61643;49.564;17.412;2023-11-19T12:50:06;15.77;;;7.90;;
73428;SDS011;61643;49.564;17.412;2023-11-19T12:52:36;15.68;;;8.23;;
73428;SDS011;61643;49.564;17.412;2023-11-19T12:55:04;11.63;;;6.00;;
73428;SDS011;61643;49.564;17.412;2023-11-19T12:57:37;22.83;;;10.85;;
73428;SDS011;61643;49.564;17.412;2023-11-19T13:00:06;16.92;;;8.43;;
73428;SDS011;61643;49.564;17.412;2023-11-19T13:02:46;14.82;;;8.00;;
73428;SDS011;61643;49.564;17.412;2023-11-19T13:08:02;15.30;;;7.97;;
73428;SDS011;61643;49.564;17.412;2023-11-19T13:10:30;15.48;;;9.63;;
73428;SDS011;61643;49.564;17.412;2023-11-19T13:13:14;13.93;;;7.97;;
73428;SDS011;61643;49.564;17.412;2023-11-19T13:15:40;14.80;;;8.52;;
73428;SDS011;61643;49.564;17.412;2023-11-19T13:18:06;13.98;;;7.07;;
73428;SDS011;61643;49.564;17.412;2023-11-19T13:20:32;14.48;;;8.10;;
73428;SDS011;61643;49.564;17.412;2023-11-19T13:22:59;23.02;;;13.88;;
73428;SDS011;61643;49.564;17.412;2023-11-19T13:25:27;27.95;;;14.40;;
73428;SDS011;61643;49.564;17.412;2023-11-19T13:27:54;39.67;;;19.52;;
73428;SDS011;61643;49.564;17.412;2023-11-19T13:30:21;24.67;;;13.20;;
73428;SDS011;61643;49.564;17.412;2023-11-19T13:32:50;24.60;;;11.57;;
73428;SDS011;61643;49.564;17.412;2023-11-19T13:35:18;23.02;;;11.15;;
73428;SDS011;61643;49.564;17.412;2023-11-19T13:37:44;22.23;;;11.35;;
73428;SDS011;61643;49.564;17.412;2023-11-19T13:40:11;21.17;;;10.93;;
73428;SDS011;61643;49.564;17.412;2023-11-19T13:42:39;20.52;;;10.10;;
73428;SDS011;61643;49.564;17.412;2023-11-19T13:45:07;18.10;;;9.48;;
73428;SDS011;61643;49.564;17.412;2023-11-19T13:47:38;19.17;;;9.23;;
73428;SDS011;61643;49.564;17.412;2023-11-19T13:50:07;22.48;;;11.85;;
73428;SDS011;61643;49.564;17.412;2023-11-19T13:52:37;21.73;;;9.95;;
73428;SDS011;61643;49.564;17.412;2023-11-19T13:57:31;19.85;;;10.65;;
73428;SDS011;61643;49.564;17.412;2023-11-19T13:59:57;21.85;;;11.60;;
73428;SDS011;61643;49.564;17.412;2023-11-19T14:02:23;24.30;;;12.57;;
73428;SDS011;61643;49.564;17.412;2023-11-19T14:04:49;25.75;;;12.27;;
73428;SDS011;61643;49.564;17.412;2023-11-19T14:07:15;26.42;;;13.95;;
73428;SDS011;61643;49.564;17.412;2023-11-19T14:09:42;25.67;;;12.90;;
73428;SDS011;61643;49.564;17.412;2023-11-19T14:12:08;30.55;;;15.88;;
73428;SDS011;61643;49.564;17.412;2023-11-19T14:14:35;27.92;;;14.10;;
73428;SDS011;61643;49.564;17.412;2023-11-19T14:17:01;48.65;;;20.65;;
73428;SDS011;61643;49.564;17.412;2023-11-19T14:19:28;33.60;;;15.88;;
73428;SDS011;61643;49.564;17.412;2023-11-19T14:21:54;22.38;;;11.70;;
73428;SDS011;61643;49.564;17.412;2023-11-19T14:24:20;25.88;;;13.38;;
73428;SDS011;61643;49.564;17.412;2023-11-19T14:26:47;20.33;;;9.77;;
73428;SDS011;61643;49.564;17.412;2023-11-19T14:29:15;19.40;;;9.93;;
73428;SDS011;61643;49.564;17.412;2023-11-19T14:31:41;22.33;;;9.98;;
73428;SDS011;61643;49.564;17.412;2023-11-19T14:34:07;26.33;;;12.82;;
73428;SDS011;61643;49.564;17.412;2023-11-19T14:36:33;21.63;;;11.00;;
73428;SDS011;61643;49.564;17.412;2023-11-19T14:38:59;21.50;;;10.43;;
73428;SDS011;61643;49.564;17.412;2023-11-19T14:41:25;18.60;;;9.65;;
73428;SDS011;61643;49.564;17.412;2023-11-19T14:43:50;20.58;;;10.57;;